Time;durP1;ratioP1;P1;durP2;ratioP2;P2;SDS_P1;SDS_P2;PMS_P1;PMS_P2;Temp;Humidity;BMP_temperature;BMP_pressure;BME280_temperature;BME280_humidity;BME280_pressure;Samples;Min_cycle;Max_cycle;Signal;HPM_P1;HPM_P2
2021/11/21 00:02:07;;;;;;;14.10;5.85;;;9.70;99.90;;;;;;5098291;27;20551;-75
2021/11/21 00:04:33;;;;;;;8.15;5.35;;;9.70;99.90;;;;;;5099236;28;20390;-74
2021/11/21 00:06:59;;;;;;;10.65;4.63;;;9.70;99.90;;;;;;5098105;28;20020;-75
2021/11/21 00:09:24;;;;;;;9.02;5.00;;;9.70;99.90;;;;;;5099177;28;20027;-75
2021/11/21 00:11:50;;;;;;;9.45;4.32;;;9.70;99.90;;;;;;5100609;28;20466;-75
2021/11/21 00:14:16;;;;;;;8.13;4.53;;;9.70;99.90;;;;;;5082390;28;20514;-75
2021/11/21 00:16:42;;;;;;;13.18;4.90;;;9.70;99.90;;;;;;5079953;28;20423;-75
2021/11/21 00:19:08;;;;;;;10.07;4.53;;;9.70;99.90;;;;;;5097638;28;20094;-75
2021/11/21 00:21:34;;;;;;;9.82;4.35;;;9.70;99.90;;;;;;5080943;28;20141;-75
2021/11/21 00:24:01;;;;;;;10.75;4.55;;;9.70;99.90;;;;;;5098648;28;20462;-74
2021/11/21 00:26:27;;;;;;;9.88;4.55;;;9.70;99.90;;;;;;5099152;28;20071;-75
2021/11/21 00:28:53;;;;;;;9.88;4.47;;;9.70;99.90;;;;;;5100303;28;20093;-74
2021/11/21 00:31:19;;;;;;;8.50;4.68;;;9.80;99.90;;;;;;5099205;28;20469;-75
2021/11/21 00:33:45;;;;;;;8.68;4.78;;;9.80;99.90;;;;;;5097360;28;20131;-74
2021/11/21 00:36:11;;;;;;;13.13;4.97;;;9.80;99.90;;;;;;5097944;28;20020;-74
2021/11/21 00:38:38;;;;;;;9.82;4.40;;;9.80;99.90;;;;;;5097756;28;20028;-75
2021/11/21 00:41:04;;;;;;;17.52;4.82;;;9.70;99.90;;;;;;5098141;28;20106;-75
2021/11/21 00:43:31;;;;;;;8.35;4.50;;;9.80;99.90;;;;;;5097944;28;20337;-75
2021/11/21 00:45:57;;;;;;;9.85;4.57;;;9.70;99.90;;;;;;5099139;28;20030;-74
2021/11/21 00:48:23;;;;;;;8.15;4.28;;;9.70;99.90;;;;;;5077547;28;20045;-74
2021/11/21 00:50:56;;;;;;;7.38;4.15;;;9.70;99.90;;;;;;5096995;28;20028;-75
2021/11/21 00:53:22;;;;;;;9.38;4.55;;;9.70;99.90;;;;;;5099996;28;20122;-74
2021/11/21 00:55:53;;;;;;;7.70;4.18;;;9.80;99.90;;;;;;5100358;28;20536;-74
2021/11/21 00:58:19;;;;;;;;;;;9.80;99.90;;;;;;5098954;28;20016;-74
2021/11/21 01:00:49;;;;;;;6.07;3.63;;;9.70;99.90;;;;;;5097084;28;19918;-74
2021/11/21 01:03:19;;;;;;;7.80;3.80;;;9.70;99.90;;;;;;5097576;28;20082;-74
2021/11/21 01:05:46;;;;;;;7.00;4.28;;;9.70;99.90;;;;;;5093491;28;20512;-72
2021/11/21 01:08:13;;;;;;;10.15;4.10;;;9.80;99.90;;;;;;5093997;28;20068;-75
2021/11/21 01:10:41;;;;;;;8.65;4.22;;;9.80;99.90;;;;;;5078049;28;20028;-74
2021/11/21 01:13:06;;;;;;;9.13;4.25;;;9.80;99.90;;;;;;5097632;28;20466;-75
2021/11/21 01:15:33;;;;;;;7.38;3.47;;;9.70;99.90;;;;;;5098886;28;20084;-75
2021/11/21 01:18:00;;;;;;;6.53;4.13;;;9.70;99.90;;;;;;5096711;28;20032;-73
2021/11/21 01:20:29;;;;;;;6.43;3.85;;;9.70;99.90;;;;;;5096152;28;20031;-74
2021/11/21 01:22:55;;;;;;;7.18;3.78;;;9.70;99.90;;;;;;5098717;28;20032;-74
2021/11/21 01:25:21;;;;;;;8.23;4.25;;;9.70;99.90;;;;;;5099069;28;20059;-74
2021/11/21 01:27:47;;;;;;;10.27;4.35;;;9.70;99.90;;;;;;5096333;28;20050;-74
2021/11/21 01:30:17;;;;;;;7.40;3.78;;;9.70;99.90;;;;;;5102810;28;20027;-74
2021/11/21 01:32:44;;;;;;;7.35;4.43;;;9.70;99.90;;;;;;5097488;28;20028;-74
2021/11/21 01:35:11;;;;;;;8.68;4.13;;;9.70;99.90;;;;;;5097121;28;20032;-75
2021/11/21 01:37:38;;;;;;;8.93;3.85;;;9.80;99.90;;;;;;5078238;28;20024;-73
2021/11/21 01:40:07;;;;;;;10.45;4.32;;;9.70;99.90;;;;;;5098263;28;20095;-73
2021/11/21 01:42:33;;;;;;;8.40;4.05;;;9.80;99.90;;;;;;5102225;28;20047;-74
2021/11/21 01:44:58;;;;;;;8.32;4.10;;;9.70;99.90;;;;;;5098063;28;20074;-75
2021/11/21 01:47:24;;;;;;;6.72;4.28;;;9.80;99.90;;;;;;5095199;28;20023;-75
2021/11/21 01:49:50;;;;;;;9.25;3.85;;;9.70;99.90;;;;;;5090181;28;20048;-74
2021/11/21 01:52:16;;;;;;;6.93;3.92;;;9.70;99.90;;;;;;5096664;28;20030;-73
2021/11/21 01:54:42;;;;;;;6.82;4.43;;;9.70;99.90;;;;;;5096159;28;20039;-75
2021/11/21 01:57:08;;;;;;;6.70;3.90;;;9.70;99.90;;;;;;5097193;28;20024;-75
2021/11/21 01:59:35;;;;;;;6.45;3.80;;;9.70;99.90;;;;;;5080557;28;20508;-75
2021/11/21 02:02:01;;;;;;;9.68;4.72;;;9.80;99.90;;;;;;5080495;28;20492;-74
2021/11/21 02:04:27;;;;;;;8.10;4.25;;;9.80;99.90;;;;;;5099180;28;20027;-74
2021/11/21 02:06:53;;;;;;;9.43;4.72;;;9.70;99.90;;;;;;5102392;28;20046;-74
2021/11/21 02:09:19;;;;;;;7.78;4.82;;;9.80;99.90;;;;;;5102483;28;20409;-72
2021/11/21 02:11:44;;;;;;;9.35;4.43;;;9.80;99.90;;;;;;5100217;28;20474;-75
2021/11/21 02:14:10;;;;;;;9.93;5.55;;;9.70;99.90;;;;;;5101668;28;20344;-75
2021/11/21 02:16:37;;;;;;;8.25;4.93;;;9.80;99.90;;;;;;5101155;28;20254;-75
2021/11/21 02:19:03;;;;;;;8.73;4.88;;;9.70;99.90;;;;;;5081095;28;20306;-74
2021/11/21 02:21:29;;;;;;;9.02;4.82;;;9.70;99.90;;;;;;5102516;28;20108;-74
2021/11/21 02:23:56;;;;;;;8.30;5.15;;;9.70;99.90;;;;;;5100646;28;20024;-74
2021/11/21 02:26:22;;;;;;;7.78;4.70;;;9.70;99.90;;;;;;5101248;28;20443;-74
2021/11/21 02:28:52;;;;;;;8.35;4.28;;;9.70;99.90;;;;;;5100944;28;20024;-75
2021/11/21 02:31:19;;;;;;;8.00;4.88;;;9.80;99.90;;;;;;5098980;28;20098;-74
2021/11/21 02:33:45;;;;;;;9.32;5.50;;;9.80;99.90;;;;;;5100351;28;20520;-73
2021/11/21 02:36:11;;;;;;;9.90;5.53;;;9.80;99.90;;;;;;5100779;28;20034;-75
2021/11/21 02:38:37;;;;;;;9.73;5.40;;;9.70;99.90;;;;;;5102911;28;20036;-74
2021/11/21 02:41:06;;;;;;;10.68;5.60;;;9.80;99.90;;;;;;5100835;28;20073;-75
2021/11/21 02:43:33;;;;;;;8.45;5.30;;;9.80;99.90;;;;;;5100177;28;20028;-75
2021/11/21 02:45:59;;;;;;;10.25;6.53;;;9.70;99.90;;;;;;5082429;28;20039;-75
2021/11/21 02:48:31;;;;;;;11.32;6.93;;;9.70;99.90;;;;;;5099498;28;20078;-75
2021/11/21 02:50:58;;;;;;;9.80;5.68;;;9.70;99.90;;;;;;5097772;28;20103;-75
2021/11/21 02:53:27;;;;;;;12.68;7.30;;;9.70;99.90;;;;;;5101987;28;20034;-76
2021/11/21 02:55:58;;;;;;;12.90;6.97;;;9.70;99.90;;;;;;5099332;28;20369;-75
2021/11/21 02:58:25;;;;;;;12.43;6.22;;;9.60;99.90;;;;;;5100953;28;20028;-75
2021/11/21 03:00:52;;;;;;;11.93;6.68;;;9.60;99.90;;;;;;5102114;28;20056;-74
2021/11/21 03:03:18;;;;;;;10.90;6.90;;;9.60;99.90;;;;;;5099468;28;20038;-73
2021/11/21 03:05:44;;;;;;;15.65;8.20;;;9.50;99.90;;;;;;5101112;28;20031;-73
2021/11/21 03:08:10;;;;;;;10.85;6.53;;;9.50;99.90;;;;;;5100977;28;20030;-74
2021/11/21 03:10:36;;;;;;;12.30;7.70;;;9.50;99.90;;;;;;5102642;28;20108;-74
2021/11/21 03:13:06;;;;;;;11.80;7.38;;;9.50;99.90;;;;;;5100925;28;20180;-74
2021/11/21 03:15:33;;;;;;;12.10;8.02;;;9.50;99.90;;;;;;5082687;28;20020;-74
2021/11/21 03:17:59;;;;;;;13.88;8.13;;;9.50;99.90;;;;;;5101713;28;20028;-73
2021/11/21 03:20:30;;;;;;;12.82;6.75;;;9.50;99.90;;;;;;5088506;28;20027;-73
2021/11/21 03:22:57;;;;;;;11.88;7.55;;;9.50;99.90;;;;;;5101691;28;20381;-74
2021/11/21 03:25:24;;;;;;;17.15;8.88;;;9.50;99.90;;;;;;5101150;28;20034;-73
2021/11/21 03:27:49;;;;;;;11.85;7.88;;;9.50;99.90;;;;;;5085993;28;20148;-74
2021/11/21 03:30:18;;;;;;;12.68;7.95;;;9.50;99.90;;;;;;5101620;28;20106;-73
2021/11/21 03:32:46;;;;;;;11.95;7.10;;;9.40;99.90;;;;;;5101551;28;20498;-74
2021/11/21 03:35:12;;;;;;;11.18;7.32;;;9.40;99.90;;;;;;5097733;28;20032;-74
2021/11/21 03:37:38;;;;;;;10.20;7.18;;;9.50;99.90;;;;;;5100394;28;20024;-74
2021/11/21 03:40:08;;;;;;;12.60;7.63;;;9.40;99.90;;;;;;5099644;28;20100;-74
2021/11/21 03:42:34;;;;;;;10.40;6.38;;;9.40;99.90;;;;;;5100649;28;20027;-73
2021/11/21 03:44:59;;;;;;;9.18;6.43;;;9.40;99.90;;;;;;5084905;28;20035;-75
2021/11/21 03:47:25;;;;;;;10.35;6.00;;;9.40;99.90;;;;;;5099277;28;20016;-73
2021/11/21 03:49:51;;;;;;;7.53;5.85;;;9.40;99.90;;;;;;5098075;28;20332;-74
2021/11/21 03:52:17;;;;;;;8.10;5.40;;;9.50;99.90;;;;;;5098476;28;20184;-74
2021/11/21 03:54:43;;;;;;;9.38;6.15;;;9.40;99.90;;;;;;5099186;28;20081;-73
2021/11/21 03:57:09;;;;;;;7.43;5.00;;;9.40;99.90;;;;;;5100564;28;20485;-74
2021/11/21 03:59:35;;;;;;;7.95;4.63;;;9.40;99.90;;;;;;5098437;28;20029;-72
2021/11/21 04:02:01;;;;;;;7.50;4.72;;;9.40;99.90;;;;;;5099741;28;20099;-74
2021/11/21 04:04:28;;;;;;;6.25;3.83;;;9.40;99.90;;;;;;5099357;28;20397;-73
2021/11/21 04:06:54;;;;;;;6.60;3.90;;;9.40;99.90;;;;;;5103705;28;20509;-71
2021/11/21 04:09:20;;;;;;;7.50;3.40;;;9.40;99.90;;;;;;5098413;28;20055;-74
2021/11/21 04:11:46;;;;;;;5.32;3.08;;;9.40;99.90;;;;;;5101338;28;20031;-75
2021/11/21 04:14:12;;;;;;;4.30;2.70;;;9.50;99.90;;;;;;5103054;28;20148;-76
2021/11/21 04:16:38;;;;;;;4.32;3.00;;;9.40;99.90;;;;;;5104276;28;20024;-75
2021/11/21 04:19:06;;;;;;;3.85;2.10;;;9.50;99.90;;;;;;5101232;28;20544;-75
2021/11/21 04:21:32;;;;;;;10.77;8.13;;;9.50;99.90;;;;;;5101539;28;20095;-75
2021/11/21 04:23:58;;;;;;;235.63;125.90;;;9.50;99.90;;;;;;5085809;28;20019;-73
2021/11/21 04:26:24;;;;;;;92.18;47.80;;;9.50;99.90;;;;;;5105732;28;20093;-74
2021/11/21 04:28:51;;;;;;;87.80;51.85;;;9.50;99.90;;;;;;5086358;28;20028;-74
2021/11/21 04:31:17;;;;;;;10.40;5.95;;;9.50;99.90;;;;;;5103317;28;20394;-76
2021/11/21 04:33:42;;;;;;;14.27;11.27;;;9.50;99.90;;;;;;5101387;28;20111;-74
2021/11/21 04:36:08;;;;;;;4.90;1.48;;;9.50;99.90;;;;;;5102486;28;20950;-74
2021/11/21 04:38:34;;;;;;;1.75;1.02;;;9.40;99.90;;;;;;5101527;28;20042;-74
2021/11/21 04:41:00;;;;;;;2.55;1.30;;;9.50;99.90;;;;;;5098686;28;20050;-74
2021/11/21 04:43:26;;;;;;;5.22;1.30;;;9.40;99.90;;;;;;5102178;28;20024;-75
2021/11/21 04:45:54;;;;;;;3.53;1.25;;;9.40;99.90;;;;;;5102162;28;20028;-73
2021/11/21 04:48:21;;;;;;;5.43;1.20;;;9.40;99.90;;;;;;5080467;28;20035;-74
2021/11/21 04:50:47;;;;;;;2.45;1.27;;;9.40;99.90;;;;;;5103301;28;20512;-74
2021/11/21 04:53:13;;;;;;;5.30;1.10;;;9.30;99.90;;;;;;5102837;28;20028;-74
2021/11/21 04:55:38;;;;;;;7.00;1.30;;;9.40;99.90;;;;;;5083484;28;20057;-74
2021/11/21 04:58:04;;;;;;;3.03;1.13;;;9.30;99.90;;;;;;5093775;28;20501;-74
2021/11/21 05:00:30;;;;;;;4.03;1.58;;;9.40;99.90;;;;;;5103088;28;23036;-73
2021/11/21 05:02:56;;;;;;;4.10;1.60;;;9.40;99.90;;;;;;5091626;28;20528;-75
2021/11/21 05:05:24;;;;;;;3.05;1.00;;;9.40;99.90;;;;;;5098282;28;20027;-72
2021/11/21 05:07:50;;;;;;;5.07;1.20;;;9.40;99.90;;;;;;5083543;28;20389;-75
2021/11/21 05:10:17;;;;;;;8.52;1.70;;;9.40;99.90;;;;;;5100853;28;20043;-74
2021/11/21 05:12:44;;;;;;;2.92;1.15;;;9.40;99.90;;;;;;5103713;28;20028;-74
2021/11/21 05:15:13;;;;;;;6.35;1.73;;;9.40;99.90;;;;;;5103191;28;20069;-74
2021/11/21 05:17:39;;;;;;;4.53;1.40;;;9.40;99.90;;;;;;5103466;28;20492;-74
2021/11/21 05:20:06;;;;;;;5.95;1.85;;;9.50;99.90;;;;;;5099277;28;20031;-73
2021/11/21 05:22:32;;;;;;;6.80;1.50;;;9.50;99.90;;;;;;5102213;28;20551;-74
2021/11/21 05:24:58;;;;;;;6.35;1.42;;;9.40;99.90;;;;;;5102041;28;20098;-74
2021/11/21 05:27:24;;;;;;;5.85;1.90;;;9.50;99.90;;;;;;5102592;28;20489;-74
2021/11/21 05:29:53;;;;;;;5.88;1.70;;;9.50;99.90;;;;;;5104067;28;20019;-74
2021/11/21 05:32:20;;;;;;;6.13;1.48;;;9.50;99.90;;;;;;5103896;28;20681;-74
2021/11/21 05:34:46;;;;;;;7.18;1.70;;;9.50;99.90;;;;;;5101588;28;20378;-73
2021/11/21 05:37:13;;;;;;;5.07;1.35;;;9.50;99.90;;;;;;5085652;28;20351;-74
2021/11/21 05:39:39;;;;;;;7.40;1.48;;;9.50;99.90;;;;;;5085168;28;20028;-74
2021/11/21 05:42:05;;;;;;;5.18;1.42;;;9.40;99.90;;;;;;5104836;28;20015;-75
2021/11/21 05:44:31;;;;;;;9.48;1.90;;;9.40;99.90;;;;;;5101262;28;20053;-73
2021/11/21 05:46:57;;;;;;;12.98;2.15;;;9.40;99.90;;;;;;5105518;28;20489;-73
2021/11/21 05:49:23;;;;;;;11.45;2.70;;;9.40;99.90;;;;;;5106501;28;20033;-74
2021/11/21 05:51:49;;;;;;;7.90;1.85;;;9.40;99.90;;;;;;5108314;28;20043;-75
2021/11/21 05:54:14;;;;;;;9.95;2.03;;;9.40;99.90;;;;;;5105601;28;20370;-75
2021/11/21 05:56:40;;;;;;;8.75;1.67;;;9.30;99.90;;;;;;5104129;28;20119;-75
2021/11/21 05:59:06;;;;;;;7.60;1.55;;;9.30;99.90;;;;;;5088018;28;20027;-74
2021/11/21 06:01:32;;;;;;;13.00;2.08;;;9.30;99.90;;;;;;5107516;28;20024;-72
2021/11/21 06:03:58;;;;;;;11.77;2.30;;;9.30;99.90;;;;;;5105103;28;20031;-73
2021/11/21 06:06:24;;;;;;;7.97;1.77;;;9.20;99.90;;;;;;5100188;28;20503;-74
2021/11/21 06:08:50;;;;;;;16.50;2.35;;;9.20;99.90;;;;;;5108276;28;20050;-73
2021/11/21 06:11:16;;;;;;;7.57;1.95;;;9.20;99.90;;;;;;5091723;28;20531;-73
2021/11/21 06:13:43;;;;;;;9.40;1.60;;;9.20;99.90;;;;;;5102077;28;20032;-74
2021/11/21 06:16:09;;;;;;;12.70;1.92;;;9.20;99.90;;;;;;5106365;28;20071;-74
2021/11/21 06:18:35;;;;;;;8.85;1.60;;;9.10;99.90;;;;;;5085003;28;20458;-74
2021/11/21 06:21:02;;;;;;;10.65;1.88;;;9.10;99.90;;;;;;5104911;28;20047;-75
2021/11/21 06:23:33;;;;;;;10.60;1.80;;;9.20;99.90;;;;;;5104930;28;20099;-75
2021/11/21 06:26:03;;;;;;;8.60;2.22;;;9.30;99.90;;;;;;5107722;28;20031;-74
2021/11/21 06:28:29;;;;;;;9.20;1.83;;;9.30;99.90;;;;;;5085951;28;20499;-74
2021/11/21 06:30:55;;;;;;;14.32;1.88;;;9.30;99.90;;;;;;5084097;28;20135;-75
2021/11/21 06:33:21;;;;;;;13.32;2.20;;;9.30;99.90;;;;;;5107000;28;20023;-74
2021/11/21 06:35:48;;;;;;;9.32;1.80;;;9.30;99.90;;;;;;5106460;28;20030;-73
2021/11/21 06:38:17;;;;;;;12.35;2.10;;;9.20;99.90;;;;;;5104441;28;20130;-73
2021/11/21 06:40:43;;;;;;;9.65;1.67;;;9.20;99.90;;;;;;5110193;28;20016;-73
2021/11/21 06:43:09;;;;;;;10.13;2.10;;;9.20;99.90;;;;;;5102207;28;20486;-75
2021/11/21 06:45:35;;;;;;;11.25;1.88;;;9.20;99.90;;;;;;5109815;28;20068;-75
2021/11/21 06:48:06;;;;;;;7.40;1.90;;;9.20;99.90;;;;;;5082897;28;20075;-75
2021/11/21 06:50:32;;;;;;;;;;;9.20;99.90;;;;;;5100962;28;20059;-74
2021/11/21 06:52:58;;;;;;;12.75;2.53;;;9.20;99.90;;;;;;5100504;28;19914;-75
2021/11/21 06:55:24;;;;;;;8.40;2.13;;;9.10;99.90;;;;;;5104669;28;20116;-74
2021/11/21 06:57:49;;;;;;;7.15;1.83;;;9.20;99.90;;;;;;5106695;28;20107;-74
2021/11/21 07:00:16;;;;;;;9.70;2.25;;;9.20;99.90;;;;;;5105714;28;20027;-74
2021/11/21 07:02:42;;;;;;;11.63;2.20;;;9.20;99.90;;;;;;5101987;28;20035;-75
2021/11/21 07:05:08;;;;;;;7.05;1.90;;;9.20;99.90;;;;;;5084613;28;20508;-75
2021/11/21 07:07:36;;;;;;;7.22;1.88;;;9.20;99.90;;;;;;5101657;28;20526;-75
2021/11/21 07:10:06;;;;;;;8.88;2.33;;;9.20;99.90;;;;;;5107745;28;20428;-74
2021/11/21 07:12:32;;;;;;;5.55;2.10;;;9.20;99.90;;;;;;5109264;28;20035;-75
2021/11/21 07:14:58;;;;;;;5.85;2.28;;;9.20;99.90;;;;;;5107301;28;20028;-74
2021/11/21 07:17:24;;;;;;;9.50;3.30;;;9.10;99.90;;;;;;5086341;28;20024;-73
2021/11/21 07:19:50;;;;;;;8.93;2.90;;;9.10;99.90;;;;;;5103981;28;20148;-73
2021/11/21 07:22:15;;;;;;;7.60;2.97;;;9.10;99.90;;;;;;5103591;28;20665;-74
2021/11/21 07:24:41;;;;;;;8.70;3.08;;;9.10;99.90;;;;;;5085693;28;20027;-74
2021/11/21 07:27:07;;;;;;;9.40;2.70;;;9.10;99.90;;;;;;5100270;28;20035;-74
2021/11/21 07:29:33;;;;;;;8.40;2.97;;;9.30;99.90;;;;;;5083393;28;20028;-74
2021/11/21 07:32:01;;;;;;;12.32;3.55;;;9.20;99.90;;;;;;5101188;28;20031;-74
2021/11/21 07:34:28;;;;;;;5.82;2.58;;;9.20;99.90;;;;;;5106310;28;20031;-75
2021/11/21 07:36:54;;;;;;;8.52;2.78;;;9.10;99.90;;;;;;5105739;28;20024;-75
2021/11/21 07:39:20;;;;;;;4.95;2.40;;;9.10;99.90;;;;;;5091749;28;20107;-74
2021/11/21 07:41:46;;;;;;;7.55;2.58;;;9.10;99.90;;;;;;5102402;28;20023;-75
2021/11/21 07:44:12;;;;;;;7.72;2.67;;;9.10;99.90;;;;;;5103914;28;20031;-75
2021/11/21 07:46:38;;;;;;;11.30;3.42;;;9.00;99.90;;;;;;5102575;28;20036;-76
2021/11/21 07:49:04;;;;;;;8.15;2.97;;;9.00;99.90;;;;;;5104499;28;20064;-76
2021/11/21 07:51:33;;;;;;;10.65;3.70;;;9.00;99.90;;;;;;5103291;28;20031;-75
2021/11/21 07:53:59;;;;;;;9.80;3.60;;;9.00;99.90;;;;;;5106681;28;20503;-74
2021/11/21 07:56:25;;;;;;;9.80;3.60;;;9.00;99.90;;;;;;5104420;28;20106;-74
2021/11/21 07:58:50;;;;;;;6.40;3.08;;;9.00;99.90;;;;;;5096628;28;20095;-74
2021/11/21 08:01:17;;;;;;;11.52;3.35;;;9.00;99.90;;;;;;5097278;28;20035;-72
2021/11/21 08:03:44;;;;;;;6.75;3.13;;;9.00;99.90;;;;;;5081648;28;20020;-72
2021/11/21 08:06:10;;;;;;;9.05;2.92;;;9.00;99.90;;;;;;5100445;28;20085;-73
2021/11/21 08:08:39;;;;;;;10.38;3.47;;;9.00;99.90;;;;;;5077475;28;20032;-75
2021/11/21 08:11:05;;;;;;;10.13;3.10;;;9.10;99.90;;;;;;5098457;28;20027;-73
2021/11/21 08:13:32;;;;;;;10.98;3.17;;;9.10;99.90;;;;;;5100004;28;20067;-73
2021/11/21 08:15:58;;;;;;;10.10;2.80;;;9.00;99.90;;;;;;5105502;28;20106;-74
2021/11/21 08:18:24;;;;;;;9.00;2.90;;;9.00;99.90;;;;;;5107562;28;20103;-73
2021/11/21 08:20:52;;;;;;;11.13;3.45;;;9.00;99.90;;;;;;5100682;28;20083;-73
2021/11/21 08:23:19;;;;;;;5.93;3.00;;;9.00;99.90;;;;;;5106688;28;20020;-74
2021/11/21 08:25:44;;;;;;;10.05;3.50;;;9.00;99.90;;;;;;5099950;28;20028;-74
2021/11/21 08:28:10;;;;;;;10.05;3.33;;;9.10;99.90;;;;;;5103883;28;20032;-73
2021/11/21 08:30:38;;;;;;;9.82;2.67;;;9.10;99.90;;;;;;5103011;28;20039;-74
2021/11/21 08:33:08;;;;;;;9.45;2.67;;;9.10;99.90;;;;;;5083367;28;20043;-73
2021/11/21 08:35:35;;;;;;;7.97;2.97;;;9.10;99.90;;;;;;5099130;28;20528;-75
2021/11/21 08:38:01;;;;;;;12.07;2.42;;;9.10;99.90;;;;;;5099405;28;20620;-73
2021/11/21 08:40:28;;;;;;;6.82;2.35;;;9.10;99.90;;;;;;5097835;28;20027;-73
2021/11/21 08:42:56;;;;;;;9.60;2.38;;;9.10;99.90;;;;;;5103015;28;20083;-74
2021/11/21 08:45:23;;;;;;;9.73;1.90;;;9.10;99.90;;;;;;5099112;28;20024;-74
2021/11/21 08:47:49;;;;;;;4.20;1.02;;;9.00;99.90;;;;;;5095755;28;20106;-72
2021/11/21 08:50:15;;;;;;;3.58;1.40;;;9.00;99.90;;;;;;5101627;28;20034;-73
2021/11/21 08:52:41;;;;;;;3.30;0.88;;;8.90;99.90;;;;;;5100147;28;20111;-73
2021/11/21 08:55:07;;;;;;;4.68;1.33;;;9.00;99.90;;;;;;5097776;28;20112;-74
2021/11/21 08:57:34;;;;;;;5.63;1.23;;;8.90;99.90;;;;;;5097655;28;20063;-73
2021/11/21 09:00:05;;;;;;;3.30;1.10;;;9.00;99.90;;;;;;5095288;28;20110;-71
2021/11/21 09:02:32;;;;;;;17.38;6.95;;;9.00;99.90;;;;;;5098585;28;20051;-74
2021/11/21 09:04:58;;;;;;;8.55;2.03;;;9.00;99.90;;;;;;5099483;28;20024;-75
2021/11/21 09:07:24;;;;;;;7.30;1.70;;;9.00;99.90;;;;;;5080729;28;20034;-74
2021/11/21 09:09:51;;;;;;;6.45;1.75;;;9.10;99.90;;;;;;5098387;28;20035;-72
2021/11/21 09:12:17;;;;;;;6.50;1.73;;;9.10;99.90;;;;;;5079358;28;20054;-75
2021/11/21 09:14:43;;;;;;;7.25;2.00;;;9.20;99.90;;;;;;5083479;28;20028;-75
2021/11/21 09:17:09;;;;;;;11.52;2.28;;;9.30;99.90;;;;;;5100946;28;20027;-74
2021/11/21 09:19:35;;;;;;;12.30;2.47;;;9.20;99.90;;;;;;5096933;28;20112;-72
2021/11/21 09:22:01;;;;;;;12.82;2.55;;;9.20;99.90;;;;;;5097507;28;20043;-75
2021/11/21 09:24:27;;;;;;;6.75;1.45;;;9.30;99.90;;;;;;5101679;28;20038;-74
2021/11/21 09:26:52;;;;;;;6.28;2.05;;;9.30;99.90;;;;;;5097260;28;20023;-73
2021/11/21 09:29:18;;;;;;;14.45;3.10;;;9.40;99.90;;;;;;5099276;28;20030;-73
2021/11/21 09:31:44;;;;;;;13.48;2.33;;;9.40;99.90;;;;;;5092991;28;20051;-73
2021/11/21 09:34:10;;;;;;;15.15;2.53;;;9.40;99.90;;;;;;5099546;28;20613;-74
2021/11/21 09:36:36;;;;;;;10.20;1.88;;;9.50;99.90;;;;;;5078765;28;21001;-74
2021/11/21 09:39:03;;;;;;;11.93;3.10;;;9.50;99.90;;;;;;5097606;28;20126;-75
2021/11/21 09:41:29;;;;;;;11.75;1.85;;;9.50;99.90;;;;;;5098405;28;20028;-74
2021/11/21 09:43:55;;;;;;;11.52;2.58;;;9.60;99.90;;;;;;5101662;28;20098;-74
2021/11/21 09:46:21;;;;;;;11.95;2.33;;;9.70;99.90;;;;;;5067956;28;20036;-75
2021/11/21 09:48:47;;;;;;;12.13;2.33;;;9.70;99.90;;;;;;5099264;28;20512;-73
2021/11/21 09:51:13;;;;;;;11.32;2.08;;;9.60;99.90;;;;;;5099979;28;20500;-73
2021/11/21 09:53:39;;;;;;;11.48;2.42;;;9.60;99.90;;;;;;5082125;28;20508;-75
2021/11/21 09:56:05;;;;;;;10.52;2.03;;;9.60;99.90;;;;;;5098165;28;20056;-73
2021/11/21 09:58:30;;;;;;;8.48;1.80;;;9.60;99.90;;;;;;5098430;28;20055;-74
2021/11/21 10:00:56;;;;;;;12.48;2.38;;;9.60;99.90;;;;;;5099486;28;20027;-74
2021/11/21 10:03:23;;;;;;;9.35;1.58;;;9.60;99.90;;;;;;5099023;28;20059;-76
2021/11/21 10:05:53;;;;;;;9.35;2.00;;;9.50;99.90;;;;;;5084166;28;20050;-74
2021/11/21 10:08:21;;;;;;;8.55;2.05;;;9.50;99.90;;;;;;5100893;28;20036;-74
2021/11/21 10:11:08;;;;;;;10.65;1.50;;;9.50;99.90;;;;;;5099396;28;20393;-73
2021/11/21 10:13:36;;;;;;;12.88;2.22;;;9.50;99.90;;;;;;5104115;28;20049;-73
2021/11/21 10:16:17;;;;;;;10.27;1.70;;;9.50;99.90;;;;;;5071216;28;20028;-75
2021/11/21 10:18:54;;;;;;;9.68;1.60;;;9.50;99.90;;;;;;5092536;28;20032;-77
2021/11/21 10:21:22;;;;;;;7.57;1.58;;;9.60;99.90;;;;;;5100286;28;20112;-76
2021/11/21 10:23:48;;;;;;;11.60;1.98;;;9.70;99.90;;;;;;5108429;28;20047;-76
2021/11/21 10:26:26;;;;;;;11.05;2.28;;;9.80;99.90;;;;;;5102867;28;20116;-73
2021/11/21 10:28:53;;;;;;;12.75;2.10;;;9.80;99.90;;;;;;5105873;28;20031;-73
2021/11/21 10:31:23;;;;;;;7.65;1.40;;;9.60;99.90;;;;;;5106177;28;20034;-73
2021/11/21 10:33:55;;;;;;;8.60;1.10;;;9.50;99.90;;;;;;5105738;28;20055;-74
2021/11/21 10:36:25;;;;;;;11.75;1.23;;;9.40;99.90;;;;;;5103986;28;20290;-72
2021/11/21 10:39:03;;;;;;;6.72;1.25;;;9.40;99.90;;;;;;5084830;28;20028;-72
2021/11/21 10:41:34;;;;;;;7.50;1.25;;;9.40;99.90;;;;;;5083482;28;20020;-75
2021/11/21 10:44:02;;;;;;;;;;;9.40;99.90;;;;;;5104611;28;20016;-72
2021/11/21 10:46:37;;;;;;;2.97;0.80;;;9.40;99.90;;;;;;5086371;28;20064;-77
2021/11/21 10:49:27;;;;;;;2.83;0.68;;;9.40;99.90;;;;;;5098040;28;20609;-74
2021/11/21 10:52:22;;;;;;;3.58;0.60;;;9.30;99.90;;;;;;5100278;28;20100;-75
2021/11/21 10:54:53;;;;;;;3.30;0.80;;;9.20;99.90;;;;;;5104364;28;20108;-75
2021/11/21 10:57:29;;;;;;;6.40;0.80;;;9.20;99.90;;;;;;5088994;28;20061;-75
2021/11/21 10:59:58;;;;;;;6.68;1.25;;;9.10;99.90;;;;;;5102149;28;20069;-75
2021/11/21 11:02:31;;;;;;;3.55;0.80;;;9.10;99.90;;;;;;5107176;28;20027;-76
2021/11/21 11:05:09;;;;;;;3.33;1.30;;;9.10;99.90;;;;;;5077874;28;20020;-76
2021/11/21 11:07:55;;;;;;;6.68;1.30;;;9.10;99.90;;;;;;5111378;28;20028;-76
2021/11/21 11:10:34;;;;;;;3.38;1.23;;;9.10;99.90;;;;;;5087055;28;20110;-77
2021/11/21 11:13:04;;;;;;;10.38;1.52;;;9.10;99.90;;;;;;5109208;28;20030;-75
2021/11/21 11:15:33;;;;;;;6.20;1.48;;;9.10;99.90;;;;;;5108356;28;20027;-76
2021/11/21 11:17:59;;;;;;;6.82;1.75;;;9.10;99.90;;;;;;5104742;28;20314;-76
2021/11/21 11:20:26;;;;;;;8.77;1.55;;;9.10;99.90;;;;;;5104992;28;20129;-77
2021/11/21 11:22:53;;;;;;;9.60;1.60;;;9.20;99.90;;;;;;5111123;28;20036;-75
2021/11/21 11:25:25;;;;;;;7.95;1.40;;;9.20;99.90;;;;;;5092936;28;20065;-75
2021/11/21 11:28:33;;;;;;;8.35;1.40;;;9.20;99.90;;;;;;5088158;28;20032;-75
2021/11/21 11:31:01;;;;;;;10.65;1.40;;;9.30;99.90;;;;;;5105005;28;20028;-76
2021/11/21 11:33:39;;;;;;;9.02;1.80;;;9.30;99.90;;;;;;5081312;28;20028;-76
2021/11/21 11:36:22;;;;;;;7.40;1.55;;;9.30;99.90;;;;;;5107340;28;20157;-74
2021/11/21 11:39:13;;;;;;;8.50;2.00;;;9.30;99.90;;;;;;5104449;28;20030;-75
2021/11/21 11:41:39;;;;;;;5.63;1.50;;;9.30;99.90;;;;;;5105019;28;20028;-76
2021/11/21 11:44:06;;;;;;;13.60;1.80;;;9.30;99.90;;;;;;5107741;28;20031;-75
2021/11/21 11:46:34;;;;;;;9.10;1.80;;;9.50;99.90;;;;;;5103372;28;20038;-75
2021/11/21 11:49:08;;;;;;;5.55;1.50;;;9.50;99.90;;;;;;5106577;28;20024;-77
2021/11/21 11:51:34;;;;;;;9.32;1.60;;;9.60;99.90;;;;;;5104830;28;20510;-76
2021/11/21 11:54:01;;;;;;;9.57;2.08;;;9.60;99.90;;;;;;5108997;28;20042;-77
2021/11/21 11:57:08;;;;;;;13.15;1.83;;;9.60;99.90;;;;;;5103360;28;20032;-76
2021/11/21 11:59:37;;;;;;;12.32;2.47;;;9.50;99.90;;;;;;5025383;28;20522;-75
2021/11/21 12:02:08;;;;;;;7.63;1.90;;;9.50;99.90;;;;;;5077731;28;20048;-75
2021/11/21 12:04:34;;;;;;;6.88;1.65;;;9.50;99.90;;;;;;5105499;28;20031;-74
2021/11/21 12:07:19;;;;;;;7.30;1.63;;;9.50;99.90;;;;;;5104496;28;20435;-74
2021/11/21 12:10:01;;;;;;;10.68;1.70;;;9.60;99.90;;;;;;5103897;28;20024;-74
2021/11/21 12:12:48;;;;;;;9.32;1.67;;;9.50;99.90;;;;;;5104413;28;20034;-74
2021/11/21 12:15:51;;;;;;;8.02;1.23;;;9.60;99.90;;;;;;5105829;28;20385;-75
2021/11/21 12:18:19;;;;;;;7.22;1.38;;;9.60;99.90;;;;;;5099627;28;20020;-74
2021/11/21 12:20:52;;;;;;;12.90;2.00;;;9.50;99.90;;;;;;5104145;28;20024;-74
2021/11/21 12:23:41;;;;;;;9.30;1.40;;;9.60;99.90;;;;;;5103110;28;20133;-74
2021/11/21 12:26:35;;;;;;;6.38;1.30;;;9.50;99.90;;;;;;5093103;28;20063;-74
2021/11/21 12:29:09;;;;;;;5.32;1.30;;;9.60;99.90;;;;;;5108407;28;20023;-75
2021/11/21 12:31:39;;;;;;;10.70;1.50;;;9.70;99.90;;;;;;5101535;28;20031;-74
2021/11/21 12:34:27;;;;;;;3.92;1.35;;;9.80;99.90;;;;;;5081552;28;20101;-74
2021/11/21 12:37:10;;;;;;;7.65;1.48;;;9.80;99.90;;;;;;5086919;28;20393;-74
2021/11/21 12:39:36;;;;;;;6.65;1.10;;;9.80;99.90;;;;;;5082183;28;20053;-74
2021/11/21 12:42:06;;;;;;;9.75;1.73;;;9.80;99.90;;;;;;5105687;28;20024;-76
2021/11/21 12:44:33;;;;;;;6.88;1.38;;;9.70;99.90;;;;;;5105723;28;20027;-75
2021/11/21 12:47:03;;;;;;;4.80;1.15;;;9.70;99.90;;;;;;5090730;28;20028;-75
2021/11/21 12:49:29;;;;;;;10.93;1.52;;;9.70;99.90;;;;;;5081242;28;20031;-75
2021/11/21 12:52:17;;;;;;;8.35;1.42;;;9.70;99.90;;;;;;5102164;28;20024;-74
2021/11/21 12:54:43;;;;;;;12.95;1.85;;;9.60;99.90;;;;;;5101082;28;20477;-77
2021/11/21 12:57:12;;;;;;;7.80;1.40;;;9.70;99.90;;;;;;5083241;28;20019;-75
2021/11/21 12:59:56;;;;;;;9.75;1.23;;;9.70;99.90;;;;;;5105714;28;20048;-76
2021/11/21 13:02:27;;;;;;;5.15;1.08;;;9.80;99.90;;;;;;5099857;28;20074;-76